Time;durP1;ratioP1;P1;durP2;ratioP2;P2;SDS_P1;SDS_P2;PMS_P1;PMS_P2;Temp;Humidity;BMP_temperature;BMP_pressure;BME280_temperature;BME280_humidity;BME280_pressure;Samples;Min_cycle;Max_cycle;Signal;HPM_P1;HPM_P2
2021/07/26 00:02:13;;;;;;;18.02;8.20;;;18.80;83.80;;;;;;6130753;23;20017;-78
2021/07/26 00:04:41;;;;;;;16.42;9.10;;;18.70;83.80;;;;;;6130994;23;20087;-78
2021/07/26 00:07:08;;;;;;;31.65;9.63;;;18.70;83.40;;;;;;6156814;23;20056;-78
2021/07/26 00:09:38;;;;;;;21.08;10.98;;;18.70;83.50;;;;;;6155187;23;20027;-79
2021/07/26 00:12:06;;;;;;;22.25;11.07;;;18.70;83.50;;;;;;6156811;23;20028;-78
2021/07/26 00:14:34;;;;;;;18.85;11.30;;;18.70;83.70;;;;;;6155433;23;20021;-79
2021/07/26 00:17:02;;;;;;;30.38;13.30;;;18.70;83.90;;;;;;6130934;23;20030;-78
2021/07/26 00:19:29;;;;;;;22.20;12.23;;;18.60;83.90;;;;;;6130540;23;20024;-78
2021/07/26 00:21:56;;;;;;;22.23;13.25;;;18.60;83.70;;;;;;6154991;23;20018;-78
2021/07/26 00:24:23;;;;;;;34.10;15.02;;;18.60;83.60;;;;;;6130250;23;20028;-78
2021/07/26 00:26:50;;;;;;;21.58;14.93;;;18.60;83.60;;;;;;6155377;23;20453;-78
2021/07/26 00:29:17;;;;;;;27.23;14.20;;;18.60;83.60;;;;;;6156617;23;20021;-78
2021/07/26 00:31:44;;;;;;;31.98;16.80;;;18.60;83.70;;;;;;6154996;23;20024;-79
2021/07/26 00:34:23;;;;;;;25.88;17.52;;;18.60;83.50;;;;;;6155132;23;20014;-79
2021/07/26 00:36:54;;;;;;;27.33;17.50;;;18.50;83.70;;;;;;6156400;23;20018;-79
2021/07/26 00:39:30;;;;;;;31.45;18.73;;;18.50;83.70;;;;;;6154493;23;20045;-79
2021/07/26 00:41:58;;;;;;;31.15;16.92;;;18.50;83.40;;;;;;6156776;23;20014;-78
2021/07/26 00:44:27;;;;;;;25.65;16.60;;;18.40;83.50;;;;;;6130775;23;20018;-78
2021/07/26 00:46:56;;;;;;;33.88;19.08;;;18.40;83.70;;;;;;6156544;23;20356;-78
2021/07/26 00:49:24;;;;;;;37.90;21.85;;;18.40;83.90;;;;;;6130408;23;20360;-78
2021/07/26 00:51:59;;;;;;;35.78;20.58;;;18.40;83.70;;;;;;6178916;23;20021;-79
2021/07/26 00:54:27;;;;;;;37.70;22.63;;;18.40;83.60;;;;;;6185640;23;20021;-78
2021/07/26 00:56:56;;;;;;;39.25;22.25;;;18.40;83.70;;;;;;6159697;23;20364;-78
2021/07/26 00:59:24;;;;;;;41.58;21.75;;;18.40;83.70;;;;;;6159964;23;20021;-78
2021/07/26 01:01:51;;;;;;;38.85;24.85;;;18.40;83.50;;;;;;6160077;23;20017;-78
2021/07/26 01:04:18;;;;;;;38.75;24.33;;;18.40;83.60;;;;;;6185880;23;20465;-78
2021/07/26 01:06:46;;;;;;;39.15;25.35;;;18.30;83.60;;;;;;6185946;23;20465;-78
2021/07/26 01:09:14;;;;;;;46.58;26.25;;;18.30;83.50;;;;;;6159559;23;20021;-78
2021/07/26 01:11:42;;;;;;;46.53;25.75;;;18.30;83.40;;;;;;6159580;23;20464;-79
2021/07/26 01:14:10;;;;;;;60.70;28.17;;;18.20;83.50;;;;;;6160077;23;20021;-79
2021/07/26 01:16:38;;;;;;;42.25;25.08;;;18.20;83.70;;;;;;6185959;23;20021;-79
2021/07/26 01:19:05;;;;;;;50.35;28.13;;;18.20;83.90;;;;;;6159806;23;20021;-78
2021/07/26 01:21:32;;;;;;;51.47;26.00;;;18.20;84.10;;;;;;6184289;23;20080;-78
2021/07/26 01:24:01;;;;;;;49.97;28.95;;;18.20;84.20;;;;;;6159562;23;20027;-79
2021/07/26 01:26:29;;;;;;;53.47;27.23;;;18.20;84.10;;;;;;6159634;23;20019;-78
2021/07/26 01:29:02;;;;;;;53.00;26.90;;;18.20;84.00;;;;;;6185470;23;20027;-78
2021/07/26 01:31:29;;;;;;;50.05;28.20;;;18.20;83.80;;;;;;6159633;23;20017;-78
2021/07/26 01:33:56;;;;;;;46.92;27.10;;;18.20;83.70;;;;;;6185944;23;20013;-78
2021/07/26 01:36:24;;;;;;;44.20;25.85;;;18.10;83.40;;;;;;6185208;23;20013;-79
2021/07/26 01:38:53;;;;;;;49.00;26.77;;;18.10;83.20;;;;;;6185664;23;20048;-79
2021/07/26 01:41:26;;;;;;;48.55;26.20;;;18.10;83.40;;;;;;6184298;23;20024;-78
2021/07/26 01:44:03;;;;;;;42.40;24.27;;;18.10;83.40;;;;;;6184185;23;20027;-79
2021/07/26 01:46:46;;;;;;;47.97;26.95;;;18.00;83.60;;;;;;6185115;23;20480;-78
2021/07/26 01:49:32;;;;;;;46.67;24.20;;;18.10;83.90;;;;;;6185266;23;20512;-78
2021/07/26 01:51:59;;;;;;;47.67;25.55;;;18.10;84.10;;;;;;6134383;23;20056;-79
2021/07/26 01:54:28;;;;;;;53.08;26.70;;;18.10;84.30;;;;;;6130035;23;20024;-79
2021/07/26 01:56:56;;;;;;;51.45;24.05;;;18.00;84.30;;;;;;6130096;23;20018;-78
2021/07/26 01:59:24;;;;;;;52.53;25.77;;;18.10;84.40;;;;;;6129572;23;20028;-78
2021/07/26 02:01:51;;;;;;;57.05;28.17;;;18.10;84.60;;;;;;6155452;23;20021;-79
2021/07/26 02:04:18;;;;;;;65.50;28.02;;;18.10;84.70;;;;;;6129778;23;20021;-79
2021/07/26 02:06:45;;;;;;;46.55;26.65;;;18.10;84.80;;;;;;6155049;23;20021;-79
2021/07/26 02:09:12;;;;;;;61.90;28.17;;;18.10;84.70;;;;;;6155702;23;20105;-78
2021/07/26 02:11:39;;;;;;;54.42;24.27;;;18.10;84.50;;;;;;6129605;23;20386;-79
2021/07/26 02:14:09;;;;;;;56.72;27.48;;;18.10;84.40;;;;;;6129476;23;20021;-78
2021/07/26 02:16:37;;;;;;;47.90;25.35;;;18.20;84.50;;;;;;6130084;23;20029;-79
2021/07/26 02:19:06;;;;;;;64.22;30.38;;;18.10;84.50;;;;;;6129873;23;20028;-79
2021/07/26 02:21:33;;;;;;;50.15;28.23;;;18.10;84.60;;;;;;6129191;23;20018;-79
2021/07/26 02:24:00;;;;;;;56.40;28.10;;;18.10;84.60;;;;;;6155594;23;20022;-78
2021/07/26 02:26:27;;;;;;;50.65;27.35;;;18.10;84.60;;;;;;6129782;23;20018;-78
2021/07/26 02:28:54;;;;;;;52.05;26.10;;;18.10;84.50;;;;;;6129392;23;20021;-78
2021/07/26 02:31:21;;;;;;;50.65;26.17;;;18.10;84.30;;;;;;6155465;23;20014;-78
2021/07/26 02:33:48;;;;;;;49.30;26.42;;;18.10;84.30;;;;;;6155575;23;20017;-78
2021/07/26 02:36:15;;;;;;;43.80;23.88;;;18.10;84.50;;;;;;6129446;23;20017;-77
2021/07/26 02:38:42;;;;;;;50.67;26.45;;;18.10;84.50;;;;;;6155664;23;20040;-78
2021/07/26 02:41:14;;;;;;;54.20;28.48;;;18.10;84.60;;;;;;6155404;23;20022;-79
2021/07/26 02:43:42;;;;;;;46.17;24.95;;;18.10;84.70;;;;;;6155463;23;20026;-78
2021/07/26 02:46:10;;;;;;;51.28;25.38;;;18.10;84.70;;;;;;6129245;23;20361;-78
2021/07/26 02:48:39;;;;;;;54.05;25.88;;;18.10;84.70;;;;;;6129570;23;20057;-78
2021/07/26 02:51:06;;;;;;;51.58;22.83;;;18.10;84.70;;;;;;6128913;23;20334;-77
2021/07/26 02:53:34;;;;;;;51.15;26.80;;;18.10;84.70;;;;;;6129264;23;20027;-77
2021/07/26 02:56:05;;;;;;;45.47;25.35;;;18.10;84.70;;;;;;6155484;23;20017;-78
2021/07/26 02:58:32;;;;;;;40.15;24.40;;;18.10;84.70;;;;;;6155085;23;20025;-78
2021/07/26 03:00:59;;;;;;;52.13;25.98;;;18.10;84.50;;;;;;6131068;23;20393;-78
2021/07/26 03:03:26;;;;;;;45.78;24.88;;;18.10;84.40;;;;;;6131368;23;20017;-77
2021/07/26 03:05:53;;;;;;;37.70;21.23;;;18.10;84.40;;;;;;6131587;23;20093;-78
2021/07/26 03:08:20;;;;;;;45.00;25.13;;;18.10;84.40;;;;;;6131129;23;20049;-77
2021/07/26 03:10:49;;;;;;;49.45;25.38;;;18.10;83.90;;;;;;6157316;23;20025;-78
2021/07/26 03:13:17;;;;;;;45.35;25.83;;;18.10;83.90;;;;;;6156936;23;20433;-78
2021/07/26 03:15:44;;;;;;;46.05;23.48;;;18.00;84.00;;;;;;6131193;23;20059;-77
2021/07/26 03:18:12;;;;;;;44.15;25.10;;;18.00;84.20;;;;;;6131101;23;20032;-77
2021/07/26 03:20:39;;;;;;;45.78;24.50;;;18.00;84.40;;;;;;6157456;23;20021;-77
2021/07/26 03:23:10;;;;;;;44.28;24.35;;;18.00;84.50;;;;;;6157085;23;20013;-77
2021/07/26 03:25:41;;;;;;;52.60;25.83;;;18.00;84.50;;;;;;6131225;23;20018;-78
2021/07/26 03:28:09;;;;;;;54.00;24.45;;;18.10;84.50;;;;;;6157212;23;20473;-78
2021/07/26 03:30:37;;;;;;;39.17;21.13;;;18.00;84.30;;;;;;6156916;23;20025;-77
2021/07/26 03:33:04;;;;;;;53.65;21.50;;;18.10;84.40;;;;;;6130845;23;20422;-77
2021/07/26 03:35:32;;;;;;;52.80;25.08;;;18.00;84.40;;;;;;6131397;23;20017;-78
2021/07/26 03:37:59;;;;;;;52.13;25.38;;;18.10;84.40;;;;;;6131036;23;20028;-77
2021/07/26 03:40:26;;;;;;;51.33;24.05;;;18.10;84.50;;;;;;6157026;23;20021;-77
2021/07/26 03:42:53;;;;;;;46.72;22.30;;;18.10;84.60;;;;;;6156832;23;20022;-77
2021/07/26 03:45:21;;;;;;;56.17;24.83;;;18.00;84.60;;;;;;6157206;23;20054;-78
2021/07/26 03:47:49;;;;;;;54.20;24.92;;;18.00;84.60;;;;;;6130813;23;20024;-78
2021/07/26 03:50:17;;;;;;;45.03;23.45;;;18.10;84.60;;;;;;6159879;23;20031;-77
2021/07/26 03:52:53;;;;;;;43.45;21.77;;;18.10;84.70;;;;;;6186579;23;20089;-78
2021/07/26 03:55:25;;;;;;;60.45;26.08;;;18.10;84.70;;;;;;6186512;23;20460;-77
2021/07/26 03:57:53;;;;;;;55.63;25.23;;;18.00;84.70;;;;;;6160386;23;20468;-78
2021/07/26 04:00:23;;;;;;;52.55;24.48;;;18.10;84.70;;;;;;6186312;23;20021;-78
2021/07/26 04:03:17;;;;;;;57.25;24.27;;;18.00;84.80;;;;;;6160013;23;20017;-78
2021/07/26 04:05:49;;;;;;;;;;;18.10;84.80;;;;;;6187010;23;20024;-78
2021/07/26 04:08:19;;;;;;;61.83;24.52;;;18.00;84.70;;;;;;6160687;23;19916;-78
2021/07/26 04:10:50;;;;;;;56.72;25.08;;;18.00;84.60;;;;;;6186232;23;20468;-77
2021/07/26 04:13:17;;;;;;;52.83;25.48;;;18.00;84.60;;;;;;6186610;23;20043;-77
2021/07/26 04:15:45;;;;;;;64.18;26.58;;;18.00;84.70;;;;;;6186282;23;20021;-78
2021/07/26 04:18:13;;;;;;;55.10;25.60;;;18.00;84.50;;;;;;6186704;23;20025;-77
2021/07/26 04:20:40;;;;;;;55.20;26.00;;;18.00;84.60;;;;;;6186532;23;20067;-78
2021/07/26 04:23:07;;;;;;;68.68;26.20;;;18.00;84.60;;;;;;6186192;23;20017;-77
2021/07/26 04:25:34;;;;;;;50.95;24.52;;;18.00;84.60;;;;;;6184953;23;20017;-78
2021/07/26 04:28:02;;;;;;;67.13;26.42;;;18.00;84.60;;;;;;6186488;23;20024;-77
2021/07/26 04:30:28;;;;;;;71.28;27.33;;;18.00;84.60;;;;;;6160137;23;20021;-77
2021/07/26 04:32:55;;;;;;;57.08;25.67;;;17.90;84.60;;;;;;6185097;23;20021;-78
2021/07/26 04:35:22;;;;;;;74.50;26.83;;;18.00;84.70;;;;;;6160540;23;20021;-78
2021/07/26 04:37:49;;;;;;;81.13;27.55;;;18.00;84.70;;;;;;6186351;23;20021;-77
2021/07/26 04:40:16;;;;;;;61.90;25.95;;;18.00;84.70;;;;;;6186140;23;20490;-78
2021/07/26 04:42:44;;;;;;;70.28;28.17;;;18.00;84.80;;;;;;6184875;23;20373;-78
2021/07/26 04:45:12;;;;;;;56.05;27.35;;;18.00;84.90;;;;;;6185770;23;20019;-77
2021/07/26 04:47:40;;;;;;;77.70;28.77;;;18.00;85.00;;;;;;6186111;23;20021;-78
2021/07/26 04:50:08;;;;;;;72.18;27.40;;;18.00;84.90;;;;;;6183387;23;20473;-79
2021/07/26 04:52:35;;;;;;;66.85;27.38;;;18.00;84.80;;;;;;6185888;23;20025;-78
2021/07/26 04:55:03;;;;;;;67.60;26.58;;;18.10;84.90;;;;;;6159901;23;20021;-79
2021/07/26 04:57:30;;;;;;;67.05;27.35;;;18.00;84.80;;;;;;6186039;23;20025;-80
2021/07/26 04:59:57;;;;;;;73.38;26.15;;;18.10;84.90;;;;;;6183512;23;20021;-78
2021/07/26 05:02:24;;;;;;;71.70;26.70;;;18.10;85.00;;;;;;6157805;23;20032;-79
2021/07/26 05:04:52;;;;;;;68.85;26.50;;;18.00;85.00;;;;;;6142976;23;20092;-79
2021/07/26 05:07:20;;;;;;;59.88;25.50;;;18.00;85.10;;;;;;6182982;23;20021;-78
2021/07/26 05:09:47;;;;;;;73.68;28.85;;;18.10;85.00;;;;;;6158441;23;20023;-78
2021/07/26 05:12:15;;;;;;;54.85;26.08;;;18.10;85.00;;;;;;6184001;23;20020;-78
2021/07/26 05:14:44;;;;;;;68.28;26.85;;;18.00;84.90;;;;;;6184345;23;20083;-78
2021/07/26 05:17:11;;;;;;;55.42;24.25;;;18.00;84.80;;;;;;6158396;23;20104;-79
2021/07/26 05:19:38;;;;;;;73.53;25.92;;;18.10;84.90;;;;;;6184236;23;20017;-77
2021/07/26 05:22:05;;;;;;;60.65;25.42;;;18.10;84.90;;;;;;6184270;23;20017;-78
2021/07/26 05:24:33;;;;;;;60.72;27.25;;;18.10;84.90;;;;;;6184643;23;20017;-77
2021/07/26 05:27:04;;;;;;;69.90;27.02;;;18.00;84.80;;;;;;6184046;23;20052;-76
2021/07/26 05:29:31;;;;;;;51.70;24.67;;;18.10;84.80;;;;;;6184192;23;20027;-77
2021/07/26 05:31:59;;;;;;;62.15;25.55;;;18.00;84.70;;;;;;6184602;23;20017;-77
2021/07/26 05:34:27;;;;;;;62.13;25.30;;;18.00;84.70;;;;;;6183773;23;20461;-77
2021/07/26 05:36:54;;;;;;;53.33;25.63;;;18.10;84.80;;;;;;6184672;23;20027;-78
2021/07/26 05:39:25;;;;;;;57.45;23.92;;;18.10;84.80;;;;;;6157918;23;20023;-77
2021/07/26 05:41:53;;;;;;;57.60;26.25;;;18.10;84.90;;;;;;6184061;23;20027;-77
2021/07/26 05:44:20;;;;;;;53.95;25.45;;;18.10;85.10;;;;;;6157729;23;20017;-77
2021/07/26 05:46:47;;;;;;;61.85;26.05;;;18.10;85.10;;;;;;6158255;23;20017;-77
2021/07/26 05:49:15;;;;;;;59.83;23.23;;;18.10;85.00;;;;;;6182626;23;20039;-77
2021/07/26 05:51:42;;;;;;;52.72;25.27;;;18.20;85.00;;;;;;6183660;23;20029;-77
2021/07/26 05:54:09;;;;;;;60.38;24.48;;;18.20;85.10;;;;;;6184260;23;20025;-78
2021/07/26 05:56:47;;;;;;;48.90;23.30;;;18.20;85.10;;;;;;6183771;23;20031;-78
2021/07/26 05:59:16;;;;;;;55.80;25.02;;;18.20;84.90;;;;;;6157589;23;20496;-77
2021/07/26 06:01:49;;;;;;;41.50;25.13;;;18.20;84.90;;;;;;6158200;23;20020;-79
2021/07/26 06:04:19;;;;;;;50.72;24.90;;;18.20;84.90;;;;;;6169692;23;20021;-80
2021/07/26 06:06:49;;;;;;;54.10;24.58;;;18.20;84.90;;;;;;6184436;23;20017;-77
2021/07/26 06:09:16;;;;;;;49.22;24.55;;;18.20;84.90;;;;;;6184252;23;20017;-78
2021/07/26 06:11:45;;;;;;;47.22;24.70;;;18.20;84.90;;;;;;6183980;23;20028;-77
2021/07/26 06:14:13;;;;;;;55.95;25.90;;;18.20;84.90;;;;;;6158174;23;20369;-78
2021/07/26 06:16:44;;;;;;;52.30;24.60;;;18.20;84.90;;;;;;6157719;23;20638;-78
2021/07/26 06:19:11;;;;;;;50.08;23.30;;;18.20;84.90;;;;;;6184253;23;20031;-77
2021/07/26 06:21:43;;;;;;;54.47;23.58;;;18.20;84.70;;;;;;6182541;23;20460;-79
2021/07/26 06:24:11;;;;;;;49.80;24.92;;;18.20;84.70;;;;;;6157450;23;20027;-80
2021/07/26 06:26:39;;;;;;;56.13;25.88;;;18.20;84.70;;;;;;6183456;23;20486;-77
2021/07/26 06:29:07;;;;;;;59.60;25.05;;;18.20;84.70;;;;;;6183905;23;20017;-76
2021/07/26 06:31:34;;;;;;;53.25;25.77;;;18.20;84.70;;;;;;6183723;23;20472;-80
2021/07/26 06:34:03;;;;;;;51.50;25.77;;;18.20;84.80;;;;;;6158095;23;20029;-77
2021/07/26 06:36:31;;;;;;;56.03;23.85;;;18.20;84.70;;;;;;6158052;23;20027;-79
2021/07/26 06:38:58;;;;;;;48.25;25.45;;;18.20;84.80;;;;;;6157798;23;20017;-80
2021/07/26 06:41:25;;;;;;;45.78;24.80;;;18.20;84.70;;;;;;6157566;23;20021;-79
2021/07/26 06:43:52;;;;;;;51.70;26.02;;;18.20;84.50;;;;;;6182529;23;20357;-80
2021/07/26 06:46:20;;;;;;;54.00;25.92;;;18.20;84.60;;;;;;6157724;23;20099;-78
2021/07/26 06:48:47;;;;;;;60.28;24.70;;;18.20;84.70;;;;;;6157847;23;20028;-79
2021/07/26 06:51:15;;;;;;;52.95;26.20;;;18.20;84.80;;;;;;6183657;23;20020;-78
2021/07/26 06:53:43;;;;;;;59.20;25.77;;;18.20;84.90;;;;;;6183509;23;20017;-79
2021/07/26 06:56:10;;;;;;;57.60;26.58;;;18.20;84.90;;;;;;6157481;23;20543;-79
2021/07/26 06:58:38;;;;;;;54.10;26.48;;;18.30;85.00;;;;;;6184208;23;20027;-79
2021/07/26 07:01:10;;;;;;;53.75;25.60;;;18.30;85.20;;;;;;6157596;23;20032;-77
2021/07/26 07:03:41;;;;;;;52.50;25.50;;;18.30;85.20;;;;;;6157562;23;20084;-78
2021/07/26 07:06:10;;;;;;;54.85;26.38;;;18.40;85.30;;;;;;6184251;23;20044;-79
2021/07/26 07:08:38;;;;;;;64.50;27.80;;;18.40;85.30;;;;;;6183719;23;20018;-77
2021/07/26 07:11:09;;;;;;;48.88;25.10;;;18.40;85.10;;;;;;6182157;23;20025;-78
2021/07/26 07:13:39;;;;;;;61.85;29.05;;;18.40;84.90;;;;;;6157982;23;20025;-79
2021/07/26 07:16:10;;;;;;;55.50;26.17;;;18.40;85.00;;;;;;6157458;23;20072;-80
2021/07/26 07:18:39;;;;;;;53.42;27.00;;;18.50;85.00;;;;;;6184403;23;20017;-79
2021/07/26 07:21:06;;;;;;;67.22;26.23;;;18.40;85.10;;;;;;6183696;23;20021;-80
2021/07/26 07:23:33;;;;;;;53.88;26.85;;;18.50;84.70;;;;;;6157140;23;20017;-80
2021/07/26 07:26:01;;;;;;;56.85;28.13;;;18.60;85.00;;;;;;6157556;23;20017;-80
2021/07/26 07:28:28;;;;;;;55.20;26.40;;;18.60;84.90;;;;;;6158102;23;20107;-80
2021/07/26 07:30:55;;;;;;;57.35;25.48;;;18.60;84.90;;;;;;6183937;23;20021;-80
2021/07/26 07:33:22;;;;;;;58.90;26.75;;;18.60;84.90;;;;;;6183792;23;20028;-80
2021/07/26 07:35:49;;;;;;;46.20;25.70;;;18.70;84.90;;;;;;6183850;23;20017;-80
2021/07/26 07:38:18;;;;;;;53.72;26.25;;;18.70;84.90;;;;;;6157707;23;20083;-79
2021/07/26 07:40:46;;;;;;;50.60;25.65;;;18.70;84.60;;;;;;6183579;23;20100;-80
2021/07/26 07:43:13;;;;;;;48.75;26.17;;;18.70;84.30;;;;;;6183377;23;20023;-81
2021/07/26 07:45:40;;;;;;;56.35;27.90;;;18.70;84.30;;;;;;6184236;23;20013;-81
2021/07/26 07:48:07;;;;;;;53.78;26.45;;;18.70;84.40;;;;;;6185763;23;20013;-79
2021/07/26 07:50:34;;;;;;;51.80;28.23;;;18.70;84.40;;;;;;6183515;23;20054;-80
2021/07/26 07:53:03;;;;;;;49.72;26.45;;;18.80;84.50;;;;;;6184986;23;20476;-79
2021/07/26 07:55:33;;;;;;;48.55;25.90;;;18.80;84.60;;;;;;6186071;23;20025;-78
2021/07/26 07:58:01;;;;;;;56.35;27.85;;;18.80;84.50;;;;;;6185769;23;20063;-79
2021/07/26 08:00:28;;;;;;;52.05;25.55;;;18.80;84.20;;;;;;6143448;23;20025;-79
2021/07/26 08:02:56;;;;;;;53.03;25.27;;;18.80;84.00;;;;;;6185460;23;20346;-80
2021/07/26 08:05:23;;;;;;;56.72;26.45;;;18.80;84.10;;;;;;6159045;23;20017;-80
2021/07/26 08:07:50;;;;;;;49.83;25.48;;;18.80;84.10;;;;;;6158769;23;20091;-80
2021/07/26 08:10:17;;;;;;;46.85;25.17;;;18.80;83.90;;;;;;6183667;23;20353;-80
2021/07/26 08:12:45;;;;;;;52.85;26.42;;;18.80;83.80;;;;;;6183762;23;20113;-80
2021/07/26 08:15:12;;;;;;;44.28;25.35;;;18.80;83.60;;;;;;6158920;23;20021;-80
2021/07/26 08:17:41;;;;;;;48.63;23.55;;;18.70;83.80;;;;;;6184197;23;20033;-80
2021/07/26 08:20:14;;;;;;;45.65;24.80;;;18.80;83.80;;;;;;6185455;23;20024;-80
2021/07/26 08:22:41;;;;;;;55.28;26.23;;;18.80;83.90;;;;;;6158758;23;20017;-80
2021/07/26 08:25:11;;;;;;;47.70;25.10;;;18.80;84.70;;;;;;6185212;23;20016;-81
2021/07/26 08:27:56;;;;;;;44.75;24.02;;;18.90;84.60;;;;;;6183687;23;20017;-80
2021/07/26 08:30:28;;;;;;;46.08;25.08;;;18.90;84.80;;;;;;6183498;23;20024;-79
2021/07/26 08:33:00;;;;;;;45.83;24.98;;;19.00;85.10;;;;;;6159794;23;20017;-79
2021/07/26 08:35:28;;;;;;;39.17;23.25;;;19.10;85.10;;;;;;6159117;23;20495;-80
2021/07/26 08:37:56;;;;;;;45.90;23.95;;;19.10;84.80;;;;;;6158318;23;20148;-80
2021/07/26 08:40:26;;;;;;;39.45;23.33;;;19.20;84.70;;;;;;6185144;23;20023;-79
2021/07/26 08:42:54;;;;;;;34.50;21.08;;;19.20;84.20;;;;;;6159022;23;20021;-79
2021/07/26 08:45:21;;;;;;;46.08;22.88;;;19.30;84.00;;;;;;6184647;23;20024;-81
2021/07/26 08:47:49;;;;;;;42.58;22.30;;;19.30;83.70;;;;;;6185014;23;20023;-80
2021/07/26 08:50:18;;;;;;;40.05;22.23;;;19.20;83.90;;;;;;6158520;23;20021;-81
2021/07/26 08:52:48;;;;;;;39.08;20.02;;;19.30;84.10;;;;;;6184339;23;20024;-81
2021/07/26 08:55:15;;;;;;;39.38;20.75;;;19.30;84.40;;;;;;6158508;23;20353;-80
2021/07/26 08:57:46;;;;;;;27.52;17.02;;;19.30;84.60;;;;;;6184918;23;20017;-80
2021/07/26 09:00:15;;;;;;;27.88;16.30;;;19.40;84.40;;;;;;6183048;23;20017;-78
2021/07/26 09:02:50;;;;;;;31.17;16.90;;;19.40;83.50;;;;;;6171156;23;20087;-81
2021/07/26 09:05:19;;;;;;;24.08;16.20;;;19.40;83.60;;;;;;6158838;23;20021;-78
2021/07/26 09:07:48;;;;;;;25.10;13.25;;;19.40;83.70;;;;;;6184151;23;20523;-79
2021/07/26 09:10:23;;;;;;;23.75;13.20;;;19.40;82.50;;;;;;6185027;23;20044;-79
2021/07/26 09:12:52;;;;;;;17.48;11.10;;;19.40;83.40;;;;;;6184924;23;20025;-79
2021/07/26 09:15:37;;;;;;;20.75;11.25;;;19.40;82.50;;;;;;6158052;23;20017;-80
2021/07/26 09:18:09;;;;;;;20.13;12.45;;;19.50;83.50;;;;;;6183495;23;20052;-79
2021/07/26 09:20:41;;;;;;;21.77;13.20;;;19.60;84.00;;;;;;6158246;23;20021;-79
2021/07/26 09:23:18;;;;;;;23.55;13.55;;;19.70;83.90;;;;;;6158282;23;20017;-78
2021/07/26 09:25:47;;;;;;;24.65;14.98;;;19.80;82.70;;;;;;6184810;23;20044;-78
2021/07/26 09:28:15;;;;;;;24.40;14.88;;;19.80;82.30;;;;;;6159049;23;20017;-78
2021/07/26 09:30:50;;;;;;;21.38;12.40;;;19.80;82.10;;;;;;6184174;23;20027;-79
2021/07/26 09:33:28;;;;;;;20.25;12.45;;;19.80;82.30;;;;;;6184399;23;20028;-78
2021/07/26 09:36:19;;;;;;;12.52;9.75;;;19.80;82.70;;;;;;6184258;23;20087;-79
2021/07/26 09:38:49;;;;;;;12.93;8.20;;;19.90;83.00;;;;;;6158290;23;20024;-78
2021/07/26 09:41:16;;;;;;;13.65;9.38;;;19.90;82.00;;;;;;6158145;23;20021;-80
2021/07/26 09:43:44;;;;;;;13.40;8.02;;;19.90;81.90;;;;;;6184184;23;20013;-78
2021/07/26 09:46:27;;;;;;;10.70;8.02;;;19.90;81.10;;;;;;6157489;23;20048;-79
2021/07/26 09:49:11;;;;;;;15.73;8.30;;;20.00;81.30;;;;;;6184734;23;20021;-78
2021/07/26 09:51:39;;;;;;;18.10;7.70;;;19.90;81.60;;;;;;6137553;23;20021;-79
2021/07/26 09:54:08;;;;;;;13.90;9.07;;;19.90;81.90;;;;;;6154373;23;20499;-81
2021/07/26 09:56:35;;;;;;;14.48;8.77;;;19.90;82.00;;;;;;6128574;23;20017;-79
2021/07/26 09:59:03;;;;;;;14.02;7.90;;;19.90;82.30;;;;;;6154454;23;20022;-80
2021/07/26 10:01:30;;;;;;;11.73;8.60;;;19.90;82.40;;;;;;6140698;23;20105;-82
2021/07/26 10:03:57;;;;;;;11.38;8.00;;;19.90;82.70;;;;;;6153756;23;20499;-81
2021/07/26 10:06:28;;;;;;;13.82;8.85;;;19.90;82.80;;;;;;6127975;23;20025;-80
2021/07/26 10:08:56;;;;;;;10.40;7.55;;;19.90;83.20;;;;;;6152703;23;20100;-81
2021/07/26 10:11:23;;;;;;;11.27;7.88;;;20.00;82.90;;;;;;6128494;23;20025;-81
2021/07/26 10:13:51;;;;;;;12.43;8.30;;;19.90;82.90;;;;;;6128091;23;20364;-81
2021/07/26 10:16:18;;;;;;;9.60;7.05;;;20.00;83.40;;;;;;6128541;23;20421;-81
2021/07/26 10:18:50;;;;;;;12.13;8.40;;;20.10;83.60;;;;;;6154260;23;20032;-80
2021/07/26 10:21:19;;;;;;;11.57;8.45;;;20.20;83.50;;;;;;6153690;23;20404;-80
2021/07/26 10:23:55;;;;;;;17.85;8.98;;;20.30;83.60;;;;;;6128047;23;20491;-79
2021/07/26 10:26:38;;;;;;;10.52;7.68;;;20.40;83.60;;;;;;6128655;23;20473;-79
2021/07/26 10:29:05;;;;;;;13.52;8.07;;;20.50;83.70;;;;;;6153719;23;20014;-82
2021/07/26 10:31:37;;;;;;;14.25;8.23;;;20.60;83.70;;;;;;6154346;23;20017;-80
2021/07/26 10:34:08;;;;;;;127.22;12.30;;;20.70;83.60;;;;;;6153754;23;20025;-83
2021/07/26 10:36:41;;;;;;;21.50;8.70;;;20.70;83.50;;;;;;6128245;23;20025;-79
2021/07/26 10:39:14;;;;;;;18.55;9.57;;;20.80;83.40;;;;;;6154126;23;20480;-79
2021/07/26 10:41:46;;;;;;;13.45;8.77;;;20.70;83.40;;;;;;6153997;23;20021;-78
2021/07/26 10:44:16;;;;;;;17.25;8.77;;;20.70;83.50;;;;;;6153713;23;20022;-79
2021/07/26 10:47:07;;;;;;;9.98;8.43;;;20.70;83.60;;;;;;6128727;23;20060;-77
2021/07/26 10:49:53;;;;;;;11.20;7.00;;;20.70;83.90;;;;;;6127989;23;20018;-79
2021/07/26 10:52:25;;;;;;;9.95;7.57;;;20.70;82.70;;;;;;6127777;23;20032;-78
2021/07/26 10:54:54;;;;;;;10.43;7.78;;;20.70;83.00;;;;;;6154608;23;20022;-78
2021/07/26 10:57:41;;;;;;;11.77;7.63;;;20.70;83.00;;;;;;6104657;23;20018;-80
2021/07/26 11:00:20;;;;;;;16.70;7.45;;;20.70;81.30;;;;;;6128886;23;20053;-79
2021/07/26 11:02:49;;;;;;;9.85;7.45;;;20.70;81.30;;;;;;6114464;23;20031;-80
2021/07/26 15:19:42;;;;;;;16.67;3.10;;;24.90;66.10;;;;;;5067264;28;20386;-22
2021/07/26 16:48:52;;;;;;;10.10;3.42;;;23.60;68.60;;;;;;5057980;28;20399;-23
2021/07/26 16:53:09;;;;;;;18.30;4.25;;;23.60;68.60;;;;;;5071864;27;20382;-71
2021/07/26 16:55:36;;;;;;;22.60;3.95;;;23.60;68.50;;;;;;5069208;28;20098;-71
2021/07/26 17:06:56;;;;;;;23.35;4.72;;;23.80;68.40;;;;;;5108003;27;20376;-81
2021/07/26 17:09:23;;;;;;;14.70;3.88;;;23.90;68.10;;;;;;5107837;28;20048;-80
2021/07/26 17:21:02;;;;;;;10.80;4.85;;;23.80;68.20;;;;;;5061308;28;20399;-30
2021/07/26 17:24:09;;;;;;;17.95;4.95;;;23.70;68.30;;;;;;5067509;28;20448;-70
2021/07/26 18:51:17;;;;;;;21.65;7.35;;;22.80;72.60;;;;;;5023485;28;20100;-67
2021/07/26 19:33:56;;;;;;;16.83;6.97;;;23.60;67.80;;;;;;5021403;28;20131;-63
2021/07/26 19:36:22;;;;;;;20.73;7.45;;;24.30;66.80;;;;;;5011677;28;20046;-65
2021/07/26 19:38:49;;;;;;;16.95;7.18;;;24.10;66.70;;;;;;5023851;28;20106;-64
2021/07/26 19:41:16;;;;;;;18.13;7.50;;;;;;;;;;5025386;28;20098;-69
2021/07/26 20:03:02;;;;;;;;;;;;;;;;;;5107852;27;19954;-36
2021/07/26 20:05:31;;;;;;;;;;;;;;;;;;5086063;28;20026;-40
2021/07/26 20:07:58;;;;;;;;;;;;;;;;;;5092063;28;20366;-43
2021/07/26 20:10:26;;;;;;;;;;;;;;;;;;5014219;28;73115;-38
2021/07/26 20:13:42;;;;;;;;;;;;;;;;;;4945957;27;19925;-40
2021/07/26 20:25:28;;;;;;;15.95;8.50;;;;;;;;;;4833949;28;20880;-40
2021/07/26 20:27:55;;;;;;;16.92;8.18;;;;;;;;;;4985870;28;20057;-37
2021/07/26 20:30:23;;;;;;;18.50;11.00;;;;;;;;;;5027521;28;20049;-39
2021/07/26 20:32:50;;;;;;;14.63;8.65;;;;;;;;;;5026932;28;20054;-39
2021/07/26 20:35:17;;;;;;;16.83;8.73;;;;;;;;;;5029168;28;20049;-40
2021/07/26 20:37:45;;;;;;;14.52;8.40;;;;;;;;;;5025674;28;20445;-38
2021/07/26 20:40:12;;;;;;;16.73;8.55;;;;;;;;;;5026582;28;20097;-38
2021/07/26 20:42:39;;;;;;;17.15;8.93;;;;;;;;;;5025408;28;20042;-40
2021/07/26 20:45:07;;;;;;;15.55;9.18;;;;;;;;;;5027118;28;20050;-40
2021/07/26 20:47:36;;;;;;;16.83;9.23;;;;;;;;;;5028322;28;20046;-39
2021/07/26 20:59:44;;;;;;;15.88;6.45;;;;;;;;;;5068070;28;20905;-28
2021/07/26 21:02:12;;;;;;;14.75;7.00;;;;;;;;;;5048539;28;20575;-25
2021/07/26 21:04:39;;;;;;;13.52;6.20;;;;;;;;;;5048409;28;20041;-27
2021/07/26 21:07:07;;;;;;;17.25;6.50;;;;;;;;;;5048524;28;20049;-26
2021/07/26 21:09:34;;;;;;;15.57;6.85;;;;;;;;;;5048010;28;20053;-25
2021/07/26 21:12:01;;;;;;;12.65;6.22;;;;;;;;;;5032531;28;20394;-24
2021/07/26 21:14:30;;;;;;;26.05;6.97;;;;;;;;;;5048920;28;20049;-28
2021/07/26 21:19:41;;;;;;;16.23;6.53;;;;;;;;;;5048060;28;20052;-25
2021/07/26 21:22:09;;;;;;;17.77;7.25;;;;;;;;;;5048124;28;20041;-25
2021/07/26 21:24:36;;;;;;;17.98;6.55;;;;;;;;;;5047732;28;20457;-25
2021/07/26 21:27:04;;;;;;;19.27;6.45;;;;;;;;;;5048037;28;20041;-26
2021/07/26 21:29:31;;;;;;;18.85;7.18;;;;;;;;;;5044746;28;20053;-25
2021/07/26 21:32:00;;;;;;;11.13;6.20;;;;;;;;;;5047854;28;20497;-23
2021/07/26 21:34:27;;;;;;;30.20;6.82;;;;;;;;;;5047727;28;20539;-30
2021/07/26 21:36:54;;;;;;;14.30;6.78;;;;;;;;;;5047955;28;20076;-25
2021/07/26 21:39:22;;;;;;;17.95;6.45;;;;;;;;;;5047499;28;20103;-25
2021/07/26 21:41:50;;;;;;;18.95;6.60;;;;;;;;;;5047597;28;20045;-26